Nampa, Canada
Current Conditions -  °F | °C
As of 2:00 AM on Saturday 22 Nov 2014 (Local Time) from CYPE Reporting Station
Moderate Snow Moderate Snow  
Wind Chill:   Ceiling: 1800
Heat Index: 21°   Visibility: 2.5mi
Dew Point: 19°   Wind: 16mph
Humidity: 93%   Direction: 40°NE
Pressure: 29.26"   Gusts: 22mph
Location:  56.03°N, 117.12°W
Report Text: CYPE 220900Z 04014G19KT 2 1/2SM SN OVC018 M06/M07 A2926 RMK SC8 SLP940
Loading
Personal Weather Stations






























Interactive Weather Map New forecast layout! Learn more

10-Day Weather Forecast

Advertisements
Track Severe Weather on mobile